Time;durP1;ratioP1;P1;durP2;ratioP2;P2;SDS_P1;SDS_P2;PMS_P1;PMS_P2;Temp;Humidity;BMP_temperature;BMP_pressure;BME280_temperature;BME280_humidity;BME280_pressure;Samples;Min_cycle;Max_cycle;Signal;HPM_P1;HPM_P2
2022/12/19 00:00:47;;;;;;;15.80;8.30;;;1.10;93.40;;;;;;6264659;22;20124;-83
2022/12/19 00:03:32;;;;;;;17.43;7.17;;;1.10;93.40;;;;;;6285808;22;20047;-85
2022/12/19 00:06:08;;;;;;;15.00;7.13;;;1.10;93.40;;;;;;6286001;22;20493;-85
2022/12/19 00:08:41;;;;;;;14.63;7.23;;;1.10;93.40;;;;;;6286733;22;20050;-86
2022/12/19 00:11:10;;;;;;;18.13;8.32;;;1.10;93.50;;;;;;6286059;22;20018;-85
2022/12/19 00:13:38;;;;;;;14.80;6.93;;;1.10;93.50;;;;;;6285801;22;20018;-83
2022/12/19 00:16:10;;;;;;;14.50;7.37;;;1.10;93.50;;;;;;6311976;22;20068;-83
2022/12/19 00:18:43;;;;;;;15.73;7.20;;;1.10;93.50;;;;;;6285913;22;20019;-83
2022/12/19 00:21:19;;;;;;;17.05;7.43;;;1.20;93.50;;;;;;6260356;22;20022;-82
2022/12/19 00:23:59;;;;;;;19.10;9.00;;;1.20;93.50;;;;;;6314580;22;20090;-83
2022/12/19 00:26:34;;;;;;;17.90;7.53;;;1.20;93.50;;;;;;6260689;22;20035;-83
2022/12/19 00:29:07;;;;;;;19.10;8.67;;;1.20;93.50;;;;;;6285421;22;20015;-83
2022/12/19 00:31:42;;;;;;;14.97;7.77;;;1.20;93.60;;;;;;6311617;22;20042;-83
2022/12/19 00:34:09;;;;;;;14.93;6.73;;;1.20;93.60;;;;;;6313235;22;20014;-84
2022/12/19 00:36:38;;;;;;;18.80;8.37;;;1.20;93.60;;;;;;6261548;22;20019;-83
2022/12/19 00:39:13;;;;;;;19.70;10.07;;;1.20;93.60;;;;;;6287261;22;20334;-84
2022/12/19 00:41:41;;;;;;;17.53;8.07;;;1.20;93.60;;;;;;6285804;22;20090;-83
2022/12/19 00:44:12;;;;;;;18.50;8.20;;;1.20;93.60;;;;;;6310994;22;20014;-84
2022/12/19 00:46:40;;;;;;;18.90;9.37;;;1.20;93.70;;;;;;6285210;22;20026;-83
2022/12/19 00:49:07;;;;;;;17.80;9.87;;;1.20;93.70;;;;;;6310554;22;20015;-84
2022/12/19 00:51:36;;;;;;;19.80;9.83;;;1.20;93.70;;;;;;6284876;22;20019;-83
2022/12/19 00:54:12;;;;;;;18.60;8.95;;;1.20;93.80;;;;;;6285758;22;20030;-84
2022/12/19 00:56:43;;;;;;;16.47;7.90;;;1.20;93.80;;;;;;6285447;22;20033;-84
2022/12/19 00:59:13;;;;;;;17.17;8.80;;;1.20;93.80;;;;;;6285916;22;20023;-83
2022/12/19 01:01:43;;;;;;;18.77;8.90;;;1.20;93.80;;;;;;6311958;22;20022;-84
2022/12/19 01:04:14;;;;;;;19.70;8.30;;;1.20;93.80;;;;;;6261358;22;20029;-83
2022/12/19 01:07:01;;;;;;;18.70;9.60;;;1.20;93.90;;;;;;6289746;22;20015;-84
2022/12/19 01:09:34;;;;;;;23.07;10.83;;;1.20;93.90;;;;;;6285708;22;20018;-84
2022/12/19 01:14:57;;;;;;;18.90;8.77;;;1.20;93.90;;;;;;6310591;22;20528;-84
2022/12/19 01:17:34;;;;;;;18.53;8.80;;;1.30;94.00;;;;;;6287901;22;20026;-84
2022/12/19 01:20:12;;;;;;;18.37;8.27;;;1.20;94.00;;;;;;6287414;22;20030;-83
2022/12/19 01:22:39;;;;;;;22.57;9.83;;;1.30;94.00;;;;;;6311058;22;20026;-84
2022/12/19 01:25:07;;;;;;;14.90;7.53;;;1.30;94.10;;;;;;6259856;22;20023;-84
2022/12/19 01:27:34;;;;;;;20.20;9.27;;;1.30;94.10;;;;;;6285202;22;20326;-83
2022/12/19 01:30:06;;;;;;;17.73;8.07;;;1.30;94.10;;;;;;6310358;22;20024;-83
2022/12/19 01:32:37;;;;;;;25.93;11.13;;;1.30;94.10;;;;;;6285386;22;20027;-83
2022/12/19 01:35:07;;;;;;;18.00;8.50;;;1.30;94.20;;;;;;6285223;22;20022;-83
2022/12/19 01:37:49;;;;;;;17.03;8.13;;;1.30;94.20;;;;;;6314106;22;20082;-83
2022/12/19 01:40:34;;;;;;;16.80;7.77;;;1.40;94.20;;;;;;6289201;22;20042;-83
2022/12/19 01:43:04;;;;;;;20.03;9.30;;;1.40;94.20;;;;;;6235222;22;20026;-83
2022/12/19 01:45:41;;;;;;;15.70;8.48;;;1.40;94.20;;;;;;6286063;22;20046;-83
2022/12/19 01:48:19;;;;;;;16.30;7.83;;;1.40;94.30;;;;;;6286035;22;20090;-83
2022/12/19 01:51:10;;;;;;;16.60;7.90;;;1.40;94.30;;;;;;6285531;22;20026;-83
2022/12/19 01:53:53;;;;;;;20.07;8.83;;;1.50;94.30;;;;;;6311039;22;20015;-83
2022/12/19 01:56:26;;;;;;;15.80;6.93;;;1.50;94.30;;;;;;6284739;22;20083;-83
2022/12/19 01:59:04;;;;;;;18.47;8.43;;;1.50;94.30;;;;;;6284990;22;20034;-83
2022/12/19 02:01:40;;;;;;;15.23;7.40;;;1.50;94.30;;;;;;6286076;22;20021;-83
2022/12/19 02:04:21;;;;;;;;;;;1.50;94.30;;;;;;6288285;22;20371;-83
2022/12/19 02:06:50;;;;;;;16.70;7.73;;;1.50;94.40;;;;;;6260410;22;19945;-83
2022/12/19 02:09:18;;;;;;;20.43;10.07;;;1.60;94.30;;;;;;6309834;22;20074;-83
2022/12/19 02:11:49;;;;;;;23.10;11.40;;;1.60;94.40;;;;;;6284787;22;20441;-83
2022/12/19 02:14:20;;;;;;;20.37;10.37;;;1.60;94.50;;;;;;6285950;22;20440;-83
2022/12/19 02:16:51;;;;;;;20.88;9.48;;;1.70;94.50;;;;;;6285600;22;20019;-83
2022/12/19 02:20:02;;;;;;;18.17;9.13;;;1.70;94.50;;;;;;6285803;22;20393;-82
2022/12/19 02:22:52;;;;;;;16.43;8.40;;;1.70;94.50;;;;;;6311712;22;20022;-83
2022/12/19 02:25:48;;;;;;;18.83;9.57;;;1.70;94.50;;;;;;6312868;22;20093;-84
2022/12/19 02:28:45;;;;;;;18.95;8.95;;;1.70;94.50;;;;;;6287517;22;20091;-84
2022/12/19 02:31:19;;;;;;;20.30;10.60;;;1.70;94.50;;;;;;6233119;22;20060;-83
2022/12/19 02:34:07;;;;;;;14.68;7.00;;;1.80;94.60;;;;;;6287247;22;20015;-82
2022/12/19 02:36:53;;;;;;;13.75;5.85;;;1.80;94.60;;;;;;6287497;22;20071;-83
2022/12/19 02:39:33;;;;;;;16.83;6.82;;;1.80;94.60;;;;;;6287398;22;20097;-83
2022/12/19 02:42:04;;;;;;;12.93;5.90;;;1.80;94.60;;;;;;6287202;22;20025;-83
2022/12/19 02:44:34;;;;;;;17.27;6.65;;;1.80;94.60;;;;;;6286868;22;20019;-83
2022/12/19 02:47:04;;;;;;;13.50;7.13;;;1.90;94.70;;;;;;6286706;22;20345;-83
2022/12/19 02:49:37;;;;;;;14.07;5.90;;;1.80;94.60;;;;;;6287519;22;20755;-83
2022/12/19 02:52:34;;;;;;;11.35;5.40;;;1.90;94.70;;;;;;6287222;22;20337;-83
2022/12/19 02:55:10;;;;;;;14.60;6.82;;;1.90;94.70;;;;;;6233261;22;20019;-83
2022/12/19 02:57:59;;;;;;;12.38;5.93;;;1.90;94.70;;;;;;6312974;22;20019;-83
2022/12/19 03:00:39;;;;;;;15.30;6.90;;;1.90;94.70;;;;;;6262707;22;20015;-83
2022/12/19 03:03:09;;;;;;;18.23;7.55;;;1.90;94.70;;;;;;6286710;22;20110;-83
2022/12/19 03:05:46;;;;;;;16.20;6.80;;;2.00;94.70;;;;;;6286008;22;20719;-83
2022/12/19 03:08:33;;;;;;;16.53;7.03;;;2.00;94.70;;;;;;6286856;22;20019;-83
2022/12/19 03:11:07;;;;;;;16.97;7.83;;;2.00;94.70;;;;;;6286857;22;20318;-83
2022/12/19 03:13:44;;;;;;;20.23;8.60;;;2.00;94.80;;;;;;6286459;22;20068;-83
2022/12/19 03:16:14;;;;;;;14.87;7.13;;;2.00;94.80;;;;;;6312420;22;20029;-83
2022/12/19 03:18:43;;;;;;;17.03;7.07;;;2.00;94.80;;;;;;6286839;22;20322;-83
2022/12/19 03:21:34;;;;;;;15.93;7.97;;;2.00;94.80;;;;;;6287227;22;20441;-83
2022/12/19 03:24:03;;;;;;;13.15;6.68;;;2.10;94.80;;;;;;6286454;22;20022;-84
2022/12/19 03:26:36;;;;;;;12.02;6.40;;;2.00;94.80;;;;;;6285863;22;20460;-83
2022/12/19 03:29:36;;;;;;;12.43;5.38;;;2.10;94.90;;;;;;6286135;22;20027;-83
2022/12/19 03:32:07;;;;;;;13.68;6.80;;;2.10;94.90;;;;;;6311919;22;20098;-84
2022/12/19 03:34:49;;;;;;;12.07;6.45;;;2.10;94.90;;;;;;6286093;22;20017;-83
2022/12/19 03:37:24;;;;;;;9.93;4.70;;;2.10;94.90;;;;;;6286839;22;20127;-83
2022/12/19 03:39:58;;;;;;;14.48;6.32;;;2.20;94.90;;;;;;6285965;22;20357;-83
2022/12/19 03:45:22;;;;;;;11.40;5.90;;;2.20;94.90;;;;;;6311724;22;20475;-83
2022/12/19 03:48:00;;;;;;;11.20;5.13;;;2.20;94.90;;;;;;6285949;22;20322;-83
2022/12/19 03:50:38;;;;;;;11.07;5.00;;;2.30;94.90;;;;;;6339616;22;20345;-83
2022/12/19 03:53:37;;;;;;;15.50;6.20;;;2.30;94.90;;;;;;6311978;22;20015;-83
2022/12/19 03:56:23;;;;;;;13.90;6.00;;;2.30;94.90;;;;;;6311969;22;20027;-83
2022/12/19 03:59:01;;;;;;;10.80;4.93;;;2.30;95.00;;;;;;6286172;22;20064;-83
2022/12/19 04:01:33;;;;;;;12.83;5.37;;;2.40;95.00;;;;;;6339076;22;20095;-83
2022/12/19 04:04:02;;;;;;;12.40;5.03;;;2.40;95.00;;;;;;6286153;22;20050;-84
2022/12/19 04:06:31;;;;;;;10.43;4.93;;;2.40;95.00;;;;;;6286118;22;20019;-84
2022/12/19 04:08:59;;;;;;;12.13;6.80;;;2.40;95.00;;;;;;6286043;22;20068;-84
2022/12/19 04:11:48;;;;;;;12.53;5.97;;;2.50;95.10;;;;;;6261560;22;20019;-84
2022/12/19 04:14:29;;;;;;;12.87;5.57;;;2.50;95.00;;;;;;6286007;22;20353;-83
2022/12/19 04:17:09;;;;;;;11.53;5.47;;;2.50;95.10;;;;;;6311641;22;20007;-83
2022/12/19 04:19:46;;;;;;;10.88;6.13;;;2.50;95.10;;;;;;6311931;22;20007;-83
2022/12/19 04:22:26;;;;;;;14.10;6.25;;;2.50;95.10;;;;;;6286041;22;20019;-83
2022/12/19 04:24:59;;;;;;;10.10;5.65;;;2.50;95.10;;;;;;6286712;22;20105;-83
2022/12/19 04:27:32;;;;;;;11.18;5.63;;;2.50;95.10;;;;;;6285222;22;20023;-84
2022/12/19 04:30:04;;;;;;;10.50;4.72;;;2.60;95.20;;;;;;6285038;22;20023;-84
2022/12/19 04:32:49;;;;;;;13.93;6.57;;;2.50;95.20;;;;;;6333036;22;20392;-84
2022/12/19 04:35:23;;;;;;;11.60;5.10;;;2.60;95.20;;;;;;6286451;22;20021;-83
2022/12/19 04:37:51;;;;;;;10.37;5.30;;;2.60;95.50;;;;;;6234980;22;20083;-84
2022/12/19 04:40:19;;;;;;;10.40;4.80;;;2.60;95.20;;;;;;6286261;22;20023;-86
2022/12/19 04:42:56;;;;;;;11.85;5.05;;;2.70;95.20;;;;;;6286728;22;20122;-85
2022/12/19 04:45:24;;;;;;;13.85;7.20;;;2.70;95.20;;;;;;6285799;22;20018;-87
2022/12/19 04:47:54;;;;;;;12.95;6.18;;;2.70;95.50;;;;;;6287162;22;20353;-86
2022/12/19 04:50:23;;;;;;;13.20;6.20;;;2.70;95.20;;;;;;6311824;22;20046;-86
2022/12/19 04:52:50;;;;;;;13.50;6.13;;;2.70;95.20;;;;;;6286330;22;20022;-86
2022/12/19 04:55:25;;;;;;;11.82;5.90;;;2.80;95.30;;;;;;6287159;22;20056;-86
2022/12/19 04:57:54;;;;;;;10.73;5.75;;;2.80;95.30;;;;;;6261701;22;20079;-86
2022/12/19 05:00:24;;;;;;;9.63;4.95;;;2.80;95.30;;;;;;6262009;22;20071;-86
2022/12/19 05:02:53;;;;;;;10.75;5.40;;;2.90;95.30;;;;;;6286610;22;20030;-86
2022/12/19 05:05:29;;;;;;;11.25;4.97;;;2.90;95.30;;;;;;6286203;22;20019;-86
2022/12/19 05:07:59;;;;;;;10.65;4.28;;;2.90;95.30;;;;;;6286669;22;20056;-86
2022/12/19 05:10:48;;;;;;;11.38;4.85;;;3.00;95.30;;;;;;6261310;22;20480;-86
2022/12/19 05:13:20;;;;;;;10.13;4.72;;;3.00;95.30;;;;;;6261572;22;20010;-86
2022/12/19 05:16:08;;;;;;;8.45;4.00;;;3.00;95.30;;;;;;6287848;22;20046;-86
2022/12/19 05:18:39;;;;;;;8.65;4.03;;;3.10;95.30;;;;;;6311559;22;20102;-86
2022/12/19 05:21:14;;;;;;;8.80;4.82;;;3.10;95.30;;;;;;6286799;22;20022;-86
2022/12/19 05:23:44;;;;;;;7.50;3.55;;;3.10;95.40;;;;;;6286594;22;20019;-86
2022/12/19 05:26:25;;;;;;;7.85;3.58;;;3.10;95.40;;;;;;6265149;22;20467;-86
2022/12/19 05:28:54;;;;;;;6.35;2.92;;;3.10;95.30;;;;;;6311647;22;20015;-87
2022/12/19 05:31:23;;;;;;;7.07;3.45;;;3.10;95.60;;;;;;6286390;22;20094;-87
2022/12/19 05:33:53;;;;;;;7.03;3.72;;;3.20;95.40;;;;;;6286347;22;20018;-87
2022/12/19 05:36:23;;;;;;;7.80;3.63;;;3.20;95.50;;;;;;6285869;22;20029;-87
2022/12/19 05:39:04;;;;;;;10.25;4.45;;;3.20;95.50;;;;;;6287487;22;20019;-86
2022/12/19 05:41:33;;;;;;;7.97;3.78;;;3.20;95.40;;;;;;6285466;22;20029;-86
2022/12/19 05:44:08;;;;;;;8.05;3.40;;;3.20;95.50;;;;;;6287013;22;20097;-86
2022/12/19 05:46:51;;;;;;;7.03;3.15;;;3.30;95.50;;;;;;6261256;22;20102;-86
2022/12/19 05:49:32;;;;;;;6.18;2.75;;;3.30;95.50;;;;;;6264253;22;20018;-86
2022/12/19 05:52:00;;;;;;;6.30;2.92;;;3.30;95.50;;;;;;6285436;22;20019;-86
2022/12/19 05:54:31;;;;;;;7.65;3.17;;;3.30;95.50;;;;;;6286511;22;20333;-86
2022/12/19 05:56:58;;;;;;;7.65;3.15;;;3.40;95.60;;;;;;6313395;22;20019;-86
2022/12/19 05:59:25;;;;;;;7.05;2.90;;;3.40;95.50;;;;;;6262502;22;20022;-86
2022/12/19 06:01:53;;;;;;;6.10;2.90;;;3.40;95.50;;;;;;6287720;22;20025;-87
2022/12/19 06:04:22;;;;;;;6.00;2.88;;;3.40;95.50;;;;;;6287614;22;20029;-83
2022/12/19 06:06:49;;;;;;;5.38;2.00;;;3.40;95.60;;;;;;6287742;22;20094;-83
2022/12/19 06:09:17;;;;;;;5.25;2.17;;;3.40;95.90;;;;;;6287707;22;20037;-83
2022/12/19 06:11:44;;;;;;;4.45;2.08;;;3.50;95.60;;;;;;6262806;22;20015;-83
2022/12/19 06:14:12;;;;;;;5.75;2.55;;;3.50;95.60;;;;;;6312890;22;20015;-85
2022/12/19 06:16:45;;;;;;;4.50;2.03;;;3.50;95.60;;;;;;6314573;22;20143;-86
2022/12/19 06:19:22;;;;;;;4.28;1.85;;;3.50;95.60;;;;;;6313054;22;20041;-83
2022/12/19 06:21:51;;;;;;;6.38;2.70;;;3.50;95.60;;;;;;6287365;22;20034;-83
2022/12/19 06:24:18;;;;;;;4.28;1.90;;;3.50;95.70;;;;;;6313259;22;20413;-85
2022/12/19 06:26:48;;;;;;;5.22;2.15;;;3.50;95.70;;;;;;6262241;22;20105;-85
2022/12/19 06:29:16;;;;;;;4.65;2.00;;;3.60;95.70;;;;;;6287549;22;20023;-84
2022/12/19 06:31:46;;;;;;;5.60;2.03;;;3.60;95.70;;;;;;6262285;22;20021;-85
2022/12/19 06:34:13;;;;;;;4.72;1.77;;;3.60;95.70;;;;;;6286783;22;20015;-85
2022/12/19 06:37:02;;;;;;;4.15;1.90;;;3.60;95.70;;;;;;6312508;22;20019;-84
2022/12/19 06:39:34;;;;;;;4.68;2.30;;;3.60;95.70;;;;;;6289378;22;20023;-84
2022/12/19 06:44:53;;;;;;;5.15;2.00;;;3.70;95.70;;;;;;6290929;22;20449;-83
2022/12/19 06:47:23;;;;;;;4.57;1.65;;;3.70;95.70;;;;;;6311788;22;20376;-83
2022/12/19 06:49:50;;;;;;;4.25;1.55;;;3.70;95.80;;;;;;6312633;22;20018;-83
2022/12/19 06:52:19;;;;;;;5.07;1.92;;;3.80;95.70;;;;;;6286781;22;20322;-83
2022/12/19 06:54:49;;;;;;;3.58;1.65;;;3.80;95.70;;;;;;6260947;22;20011;-83
2022/12/19 06:57:29;;;;;;;4.43;1.90;;;3.80;95.70;;;;;;6266605;22;20019;-83
2022/12/19 06:59:57;;;;;;;5.38;1.80;;;3.90;95.70;;;;;;6285934;22;20472;-83
2022/12/19 07:02:28;;;;;;;3.40;1.50;;;3.90;95.70;;;;;;6286771;22;20103;-83
2022/12/19 07:05:05;;;;;;;4.45;1.52;;;3.90;95.80;;;;;;6286676;22;20029;-83
2022/12/19 07:07:33;;;;;;;4.28;1.67;;;3.90;95.70;;;;;;6286435;22;20019;-83
2022/12/19 07:10:06;;;;;;;4.00;1.80;;;3.90;95.80;;;;;;6287894;22;20019;-84
2022/12/19 07:12:35;;;;;;;4.57;1.98;;;4.00;95.80;;;;;;6286827;22;20057;-84
2022/12/19 07:15:05;;;;;;;4.30;2.33;;;4.00;95.80;;;;;;6312490;22;20021;-85
2022/12/19 07:17:33;;;;;;;4.35;1.85;;;4.10;95.80;;;;;;6286865;22;20022;-85
2022/12/19 07:20:00;;;;;;;4.20;1.85;;;4.10;95.80;;;;;;6261395;22;20110;-84
2022/12/19 07:22:32;;;;;;;4.35;2.22;;;4.20;95.80;;;;;;6236076;22;20463;-84
2022/12/19 07:25:00;;;;;;;4.63;1.90;;;4.20;95.80;;;;;;6312134;22;20076;-84
2022/12/19 07:27:27;;;;;;;4.68;2.08;;;4.20;95.70;;;;;;6286421;22;20026;-85
2022/12/19 07:30:03;;;;;;;5.70;2.45;;;4.30;95.70;;;;;;6264368;22;20021;-84
2022/12/19 07:32:30;;;;;;;4.35;2.22;;;4.40;95.80;;;;;;6286745;22;20018;-84
2022/12/19 07:34:58;;;;;;;5.13;2.80;;;4.50;95.80;;;;;;6261360;22;20019;-84
2022/12/19 07:37:25;;;;;;;5.55;1.90;;;4.70;95.70;;;;;;6261175;22;20018;-84
2022/12/19 07:39:52;;;;;;;4.65;2.10;;;4.70;95.70;;;;;;6286402;22;20433;-84
2022/12/19 07:42:19;;;;;;;6.00;2.42;;;4.80;95.70;;;;;;6261773;22;20019;-84
2022/12/19 07:44:46;;;;;;;3.80;1.60;;;4.80;95.60;;;;;;6261129;22;20027;-84
2022/12/19 07:47:13;;;;;;;4.10;2.03;;;4.80;95.70;;;;;;6286756;22;20018;-84
2022/12/19 07:49:40;;;;;;;4.05;1.80;;;4.90;95.70;;;;;;6260989;22;20019;-84
2022/12/19 07:52:07;;;;;;;4.65;1.88;;;4.90;95.70;;;;;;6236317;22;20094;-84
2022/12/19 07:54:36;;;;;;;4.60;2.03;;;5.00;95.80;;;;;;6286892;22;20053;-84
2022/12/19 07:57:04;;;;;;;3.95;1.90;;;5.00;95.80;;;;;;6286179;22;20019;-84
2022/12/19 07:59:31;;;;;;;4.10;1.85;;;5.00;96.10;;;;;;6286452;22;20022;-84
2022/12/19 08:02:07;;;;;;;4.65;2.08;;;5.10;95.80;;;;;;6264817;22;20029;-84
2022/12/19 08:04:34;;;;;;;5.28;2.70;;;5.20;95.80;;;;;;6260809;22;20322;-84
2022/12/19 08:07:02;;;;;;;5.32;2.20;;;5.30;95.80;;;;;;6260545;22;20025;-84
2022/12/19 08:09:30;;;;;;;3.47;1.70;;;5.30;95.80;;;;;;6260253;22;20020;-85
2022/12/19 08:11:57;;;;;;;3.47;1.52;;;5.40;95.80;;;;;;6286032;22;20019;-85
2022/12/19 08:14:27;;;;;;;4.60;1.90;;;5.40;95.90;;;;;;6262006;22;20071;-85
2022/12/19 08:16:54;;;;;;;5.72;2.28;;;5.40;95.80;;;;;;6260677;22;20023;-84
2022/12/19 08:19:41;;;;;;;4.25;2.10;;;5.40;95.80;;;;;;6269347;22;20022;-84
2022/12/19 08:22:08;;;;;;;3.47;1.60;;;5.50;95.90;;;;;;6286732;22;20509;-84
2022/12/19 08:24:37;;;;;;;3.00;1.55;;;5.50;95.90;;;;;;6261556;22;20027;-85
2022/12/19 08:27:07;;;;;;;4.60;2.17;;;5.60;95.90;;;;;;6262965;22;20014;-85
2022/12/19 08:29:34;;;;;;;4.55;2.15;;;5.70;96.00;;;;;;6261304;22;20067;-85
2022/12/19 08:32:01;;;;;;;4.55;2.03;;;5.80;95.90;;;;;;6286694;22;20015;-85
2022/12/19 08:34:33;;;;;;;4.78;2.40;;;5.90;95.90;;;;;;6262429;22;20097;-85
2022/12/19 08:37:00;;;;;;;4.72;2.17;;;6.00;95.90;;;;;;6262012;22;20068;-86
2022/12/19 08:39:34;;;;;;;3.72;1.98;;;6.00;95.90;;;;;;6287598;22;20030;-85
2022/12/19 08:42:04;;;;;;;5.43;3.05;;;6.10;95.90;;;;;;6286867;22;20019;-86
2022/12/19 08:44:31;;;;;;;4.50;2.50;;;6.10;96.00;;;;;;6262239;22;20117;-85
2022/12/19 08:46:58;;;;;;;4.95;2.13;;;6.20;95.90;;;;;;6261019;22;20018;-85
2022/12/19 08:49:25;;;;;;;5.28;2.60;;;6.20;95.90;;;;;;6261916;22;20040;-86
2022/12/19 08:51:55;;;;;;;4.63;1.90;;;6.30;96.00;;;;;;6287204;22;20049;-86
2022/12/19 08:54:25;;;;;;;5.35;2.67;;;6.40;96.00;;;;;;6264421;22;20026;-86
2022/12/19 08:56:56;;;;;;;4.22;1.88;;;6.40;96.10;;;;;;6306761;22;20048;-86
2022/12/19 08:59:26;;;;;;;4.25;2.00;;;6.40;96.00;;;;;;6296132;22;20101;-87
2022/12/19 09:02:04;;;;;;;3.30;1.58;;;6.40;96.00;;;;;;6240532;22;20049;-87
2022/12/19 09:04:32;;;;;;;3.15;1.48;;;6.40;96.10;;;;;;6263186;22;20023;-87
2022/12/19 09:07:21;;;;;;;4.30;1.48;;;6.40;96.20;;;;;;6270119;22;20019;-87
2022/12/19 09:09:48;;;;;;;3.88;1.48;;;6.50;96.20;;;;;;6287311;22;20042;-88
2022/12/19 09:12:24;;;;;;;4.65;2.65;;;6.50;96.20;;;;;;6262879;22;20007;-88
2022/12/19 09:14:53;;;;;;;4.78;2.53;;;6.50;96.30;;;;;;6287368;22;20014;-87
2022/12/19 09:17:23;;;;;;;5.20;2.13;;;6.50;96.30;;;;;;6286716;22;20027;-87
2022/12/19 09:19:53;;;;;;;4.85;2.00;;;6.50;96.30;;;;;;6287406;22;20125;-88
2022/12/19 09:22:20;;;;;;;4.63;1.88;;;6.60;96.40;;;;;;6286653;22;20024;-88
2022/12/19 09:24:55;;;;;;;4.00;2.38;;;6.60;96.30;;;;;;6266377;22;20030;-88
2022/12/19 09:27:25;;;;;;;4.88;2.05;;;6.60;96.40;;;;;;6262239;22;20101;-88
2022/12/19 09:29:54;;;;;;;5.32;1.63;;;6.60;96.30;;;;;;6286775;22;20015;-88
2022/12/19 09:32:21;;;;;;;4.47;1.92;;;6.60;96.40;;;;;;6261736;22;20432;-88
2022/12/19 09:34:51;;;;;;;3.05;1.88;;;6.60;96.40;;;;;;6286862;22;20439;-88
2022/12/19 09:37:28;;;;;;;4.38;2.17;;;6.60;96.40;;;;;;6287734;22;20041;-89
2022/12/19 09:39:55;;;;;;;4.50;2.65;;;6.60;96.40;;;;;;6287382;22;20101;-89
2022/12/19 09:42:56;;;;;;;5.05;2.90;;;6.60;96.50;;;;;;6313344;22;20014;-88
2022/12/19 09:45:36;;;;;;;3.75;2.25;;;6.70;96.50;;;;;;6287333;22;20050;-89
2022/12/19 09:48:14;;;;;;;3.47;2.10;;;6.70;96.50;;;;;;6307161;22;20030;-88
2022/12/19 09:51:08;;;;;;;5.55;2.70;;;6.70;96.50;;;;;;6283437;22;20042;-88
2022/12/19 09:53:51;;;;;;;5.10;1.77;;;6.70;96.60;;;;;;6308168;22;20034;-88
2022/12/19 09:56:22;;;;;;;4.70;2.33;;;6.70;96.60;;;;;;6307109;22;20015;-88
2022/12/19 09:58:57;;;;;;;4.63;2.13;;;6.70;96.60;;;;;;6307450;22;20015;-88
2022/12/19 10:01:36;;;;;;;4.35;1.85;;;6.80;96.60;;;;;;6306649;22;20102;-87
2022/12/19 10:04:17;;;;;;;3.13;1.58;;;6.80;96.60;;;;;;6306326;22;20022;-88
2022/12/19 10:06:46;;;;;;;3.78;1.83;;;6.80;96.60;;;;;;6306486;22;20408;-88
2022/12/19 10:09:34;;;;;;;2.75;1.40;;;6.80;96.70;;;;;;6285501;22;20023;-88
2022/12/19 10:12:24;;;;;;;4.15;2.05;;;6.80;96.60;;;;;;6243170;22;20446;-87
2022/12/19 10:15:29;;;;;;;3.58;1.60;;;6.80;96.70;;;;;;6285331;22;20442;-87
2022/12/19 10:18:26;;;;;;;3.75;1.67;;;6.80;96.70;;;;;;6306666;22;20038;-87
2022/12/19 10:21:08;;;;;;;3.83;1.67;;;6.80;96.70;;;;;;6306678;22;20027;-88
2022/12/19 10:23:55;;;;;;;3.70;1.60;;;6.80;96.70;;;;;;6306561;22;20099;-87
2022/12/19 10:26:47;;;;;;;3.33;1.63;;;6.80;96.70;;;;;;6280984;22;20476;-88
2022/12/19 10:30:00;;;;;;;4.07;2.05;;;6.80;96.80;;;;;;6305852;22;20015;-87
2022/12/19 10:33:00;;;;;;;5.45;1.88;;;6.90;96.80;;;;;;6306088;22;20438;-88
2022/12/19 10:35:48;;;;;;;3.40;1.60;;;6.90;96.80;;;;;;6239137;22;20015;-87
2022/12/19 10:38:23;;;;;;;3.45;1.60;;;6.90;96.80;;;;;;6306612;22;20039;-88
2022/12/19 10:41:09;;;;;;;3.92;2.00;;;6.90;96.80;;;;;;6306069;22;20532;-87
2022/12/19 10:43:51;;;;;;;3.70;1.80;;;6.90;96.80;;;;;;6308100;22;20023;-87
2022/12/19 10:46:36;;;;;;;3.67;1.63;;;6.90;96.80;;;;;;6310476;22;20027;-87
2022/12/19 10:49:17;;;;;;;4.28;2.10;;;7.00;96.90;;;;;;6287432;22;20369;-87
2022/12/19 10:52:06;;;;;;;3.03;1.70;;;7.00;96.80;;;;;;6288098;22;20018;-87
2022/12/19 10:54:37;;;;;;;4.63;1.52;;;7.00;96.80;;;;;;6287944;22;20019;-87
2022/12/19 10:57:27;;;;;;;2.33;1.38;;;7.10;96.90;;;;;;6287382;22;20018;-88
2022/12/19 11:00:05;;;;;;;3.65;1.33;;;7.10;96.80;;;;;;6287683;22;20039;-87
2022/12/19 11:02:38;;;;;;;3.20;1.52;;;7.10;96.90;;;;;;6313223;22;20023;-88
2022/12/19 11:05:28;;;;;;;4.30;2.15;;;7.10;96.90;;;;;;6288366;22;20022;-89
2022/12/19 11:08:06;;;;;;;2.13;1.00;;;7.20;96.90;;;;;;6288418;22;20474;-89
2022/12/19 11:10:54;;;;;;;4.10;1.20;;;7.10;96.90;;;;;;6287950;22;20040;-89
2022/12/19 11:13:48;;;;;;;2.90;1.33;;;7.20;96.90;;;;;;6274403;22;20022;-89
2022/12/19 11:16:45;;;;;;;3.20;1.40;;;7.20;96.90;;;;;;6293792;22;20042;-90
2022/12/19 11:19:41;;;;;;;3.63;1.88;;;7.20;96.90;;;;;;6295681;22;20018;-89
2022/12/19 11:22:35;;;;;;;4.20;2.05;;;7.20;97.00;;;;;;6273326;22;20014;-89
2022/12/19 11:25:36;;;;;;;5.20;2.80;;;7.20;96.90;;;;;;6292137;22;20022;-89
2022/12/19 11:28:37;;;;;;;4.03;2.63;;;7.30;97.10;;;;;;6293504;22;20018;-90
2022/12/19 11:31:37;;;;;;;5.45;2.83;;;7.30;97.00;;;;;;6294151;22;20019;-90
2022/12/19 11:34:36;;;;;;;4.00;2.00;;;7.30;97.00;;;;;;6273060;22;20019;-89
2022/12/19 11:37:48;;;;;;;4.97;2.38;;;7.40;97.10;;;;;;6312647;22;20026;-89
2022/12/19 11:40:46;;;;;;;3.42;1.90;;;7.40;97.00;;;;;;6281451;22;20026;-89
2022/12/19 11:43:37;;;;;;;3.60;1.83;;;7.40;97.10;;;;;;6287929;22;20065;-89
2022/12/19 11:46:35;;;;;;;3.38;1.60;;;7.40;97.10;;;;;;6289920;22;20023;-90
2022/12/19 11:49:27;;;;;;;3.22;1.50;;;7.40;97.10;;;;;;6287742;22;20097;-89
2022/12/19 11:52:49;;;;;;;3.38;1.52;;;7.40;97.10;;;;;;6288682;22;20064;-90
2022/12/19 11:55:53;;;;;;;;;;;7.40;97.10;;;;;;6139756;23;20377;-89
2022/12/19 11:58:27;;;;;;;3.08;1.60;;;7.40;97.10;;;;;;6160332;23;19916;-89
2022/12/19 12:01:35;;;;;;;2.80;1.42;;;7.40;97.10;;;;;;6300350;22;20045;-89
2022/12/19 12:04:51;;;;;;;4.07;1.50;;;7.50;97.10;;;;;;6316983;22;20090;-89
2022/12/19 12:07:23;;;;;;;2.92;1.52;;;7.50;97.10;;;;;;6287960;22;20011;-89
2022/12/19 12:10:21;;;;;;;4.15;1.95;;;7.60;97.10;;;;;;6291512;22;20014;-89
2022/12/19 12:13:51;;;;;;;3.15;1.38;;;7.60;97.10;;;;;;6292609;22;20041;-89
2022/12/19 12:17:03;;;;;;;3.03;1.50;;;7.70;97.10;;;;;;6313330;22;20451;-89
2022/12/19 12:19:56;;;;;;;2.25;1.17;;;7.70;97.10;;;;;;6291267;22;20124;-89
2022/12/19 12:22:54;;;;;;;;;;;7.70;97.10;;;;;;6291394;22;20078;-89
2022/12/19 12:26:07;;;;;;;2.60;1.08;;;7.70;97.10;;;;;;6318001;22;20031;-89
2022/12/19 12:29:16;;;;;;;4.00;1.80;;;7.80;97.10;;;;;;6290873;22;20019;-90
2022/12/19 12:32:13;;;;;;;3.47;1.45;;;7.80;97.10;;;;;;6290977;22;20050;-89
2022/12/19 12:35:15;;;;;;;3.60;1.40;;;7.80;97.10;;;;;;6291502;22;20113;-89
2022/12/19 12:38:29;;;;;;;3.10;1.10;;;7.80;97.10;;;;;;6291114;22;20046;-89
2022/12/19 12:41:16;;;;;;;4.22;1.40;;;7.80;97.20;;;;;;6287914;22;20026;-90
2022/12/19 12:44:08;;;;;;;3.20;1.63;;;7.90;97.20;;;;;;6287650;22;20019;-90
2022/12/19 12:46:47;;;;;;;2.30;1.20;;;7.90;97.20;;;;;;6287279;22;20073;-90
2022/12/19 12:49:40;;;;;;;4.72;1.50;;;7.90;97.20;;;;;;6289989;22;20470;-90
2022/12/19 12:52:26;;;;;;;3.28;1.45;;;7.90;97.20;;;;;;6288717;22;20053;-90
2022/12/19 12:54:56;;;;;;;3.63;1.58;;;8.00;97.20;;;;;;6287626;22;20026;-89
2022/12/19 12:57:27;;;;;;;3.40;1.45;;;8.00;97.20;;;;;;6312947;22;20018;-89
2022/12/19 13:00:20;;;;;;;4.57;1.60;;;8.00;97.30;;;;;;6287124;22;20061;-89
2022/12/19 13:03:14;;;;;;;2.83;1.38;;;8.10;97.20;;;;;;6287629;22;20025;-89
2022/12/19 13:05:45;;;;;;;3.70;1.88;;;8.10;97.20;;;;;;6286838;22;20022;-90
2022/12/19 13:08:24;;;;;;;4.28;2.08;;;8.20;97.30;;;;;;6286703;22;20093;-89
2022/12/19 13:10:59;;;;;;;3.67;1.88;;;8.20;97.20;;;;;;6286940;22;20040;-90
2022/12/19 13:14:00;;;;;;;3.00;1.50;;;8.20;97.20;;;;;;6288247;22;20068;-90
2022/12/19 13:16:43;;;;;;;3.38;1.67;;;8.30;97.20;;;;;;6265634;22;20015;-90
2022/12/19 13:19:25;;;;;;;3.20;1.42;;;8.40;97.20;;;;;;6312067;22;20101;-89
2022/12/19 13:22:16;;;;;;;3.92;1.80;;;8.50;97.10;;;;;;6312011;22;20026;-89
2022/12/19 13:24:51;;;;;;;3.92;1.70;;;8.50;97.10;;;;;;6315109;22;20053;-89
2022/12/19 13:27:21;;;;;;;3.03;1.23;;;8.50;97.10;;;;;;6293407;22;20018;-89
2022/12/19 13:30:00;;;;;;;3.80;1.60;;;8.50;97.10;;;;;;6288894;22;20025;-89
2022/12/19 13:32:40;;;;;;;2.58;1.40;;;8.50;97.10;;;;;;6287243;22;20040;-89
2022/12/19 13:35:10;;;;;;;4.50;2.20;;;8.50;97.10;;;;;;6287253;22;20027;-88
2022/12/19 13:38:04;;;;;;;4.20;2.00;;;8.50;97.20;;;;;;6291581;22;20459;-88
2022/12/19 13:40:58;;;;;;;3.70;1.63;;;8.50;97.20;;;;;;6291342;22;20398;-89
2022/12/19 13:43:47;;;;;;;3.63;1.83;;;8.50;97.20;;;;;;6286887;22;20019;-89
2022/12/19 13:46:43;;;;;;;2.95;1.60;;;8.50;97.10;;;;;;6287113;22;20045;-89
2022/12/19 13:49:24;;;;;;;3.20;1.48;;;8.50;97.10;;;;;;6286781;22;20052;-89
2022/12/19 13:51:56;;;;;;;2.10;0.98;;;8.50;97.20;;;;;;6286808;22;20015;-89
2022/12/19 13:54:27;;;;;;;2.80;0.95;;;8.50;97.20;;;;;;6287073;22;20019;-89
2022/12/19 13:56:59;;;;;;;3.28;1.23;;;8.50;97.20;;;;;;6287505;22;20019;-89